sensor_id;sensor_type;location;lat;lon;timestamp;temperature;humidity
484;DHT22;228;48.922;12.198;2023-11-19T05:02:03;6.60;99.90
484;DHT22;228;48.922;12.198;2023-11-19T05:04:30;6.50;99.90
484;DHT22;228;48.922;12.198;2023-11-19T05:06:56;6.20;99.90
484;DHT22;228;48.922;12.198;2023-11-19T05:09:22;6.20;99.90
484;DHT22;228;48.922;12.198;2023-11-19T05:11:48;6.20;99.90
484;DHT22;228;48.922;12.198;2023-11-19T05:14:14;5.90;99.90
484;DHT22;228;48.922;12.198;2023-11-19T05:16:40;5.90;99.90
484;DHT22;228;48.922;12.198;2023-11-19T05:19:08;6.30;99.90
484;DHT22;228;48.922;12.198;2023-11-19T05:21:37;6.70;99.90
484;DHT22;228;48.922;12.198;2023-11-19T05:24:03;6.60;99.90
484;DHT22;228;48.922;12.198;2023-11-19T05:26:32;7.00;99.90
484;DHT22;228;48.922;12.198;2023-11-19T05:28:59;7.00;99.90
484;DHT22;228;48.922;12.198;2023-11-19T05:31:25;7.30;99.90
484;DHT22;228;48.922;12.198;2023-11-19T05:33:51;7.50;99.90
484;DHT22;228;48.922;12.198;2023-11-19T05:36:17;7.60;99.90
484;DHT22;228;48.922;12.198;2023-11-19T05:38:43;7.70;99.90
484;DHT22;228;48.922;12.198;2023-11-19T05:41:10;7.80;99.90
484;DHT22;228;48.922;12.198;2023-11-19T05:43:36;7.70;99.90
484;DHT22;228;48.922;12.198;2023-11-19T05:46:03;7.40;99.90
484;DHT22;228;48.922;12.198;2023-11-19T05:48:29;7.90;99.90
484;DHT22;228;48.922;12.198;2023-11-19T05:50:55;8.00;99.90
484;DHT22;228;48.922;12.198;2023-11-19T05:53:21;7.90;99.90
484;DHT22;228;48.922;12.198;2023-11-19T05:55:47;7.60;99.90
484;DHT22;228;48.922;12.198;2023-11-19T05:58:25;7.60;99.90
484;DHT22;228;48.922;12.198;2023-11-19T06:00:52;7.90;99.90
484;DHT22;228;48.922;12.198;2023-11-19T06:03:18;8.30;99.90
484;DHT22;228;48.922;12.198;2023-11-19T06:05:50;8.50;99.70
484;DHT22;228;48.922;12.198;2023-11-19T09:29:15;8.00;99.90
484;DHT22;228;48.922;12.198;2023-11-19T09:32:04;8.20;99.90
484;DHT22;228;48.922;12.198;2023-11-19T09:34:40;8.00;99.90
484;DHT22;228;48.922;12.198;2023-11-19T09:37:24;8.30;99.90
484;DHT22;228;48.922;12.198;2023-11-19T09:40:30;8.60;99.90
484;DHT22;228;48.922;12.198;2023-11-19T09:43:03;8.70;99.90
484;DHT22;228;48.922;12.198;2023-11-19T09:45:58;8.70;99.90
484;DHT22;228;48.922;12.198;2023-11-19T09:48:48;8.70;99.90
484;DHT22;228;48.922;12.198;2023-11-19T09:51:21;9.10;99.70
484;DHT22;228;48.922;12.198;2023-11-19T09:54:44;9.60;98.80
484;DHT22;228;48.922;12.198;2023-11-19T09:57:24;9.60;98.80
484;DHT22;228;48.922;12.198;2023-11-19T09:59:53;9.70;98.20
484;DHT22;228;48.922;12.198;2023-11-19T10:02:45;9.50;99.00
484;DHT22;228;48.922;12.198;2023-11-19T11:53:28;13.90;99.90
484;DHT22;228;48.922;12.198;2023-11-19T12:07:39;14.50;99.80
484;DHT22;228;48.922;12.198;2023-11-19T12:10:07;14.50;99.90
484;DHT22;228;48.922;12.198;2023-11-19T12:12:41;14.40;99.90
484;DHT22;228;48.922;12.198;2023-11-19T12:15:08;14.50;99.90
484;DHT22;228;48.922;12.198;2023-11-19T12:17:42;14.40;99.90
484;DHT22;228;48.922;12.198;2023-11-19T12:20:12;14.30;99.90
484;DHT22;228;48.922;12.198;2023-11-19T13:00:38;16.90;93.60
484;DHT22;228;48.922;12.198;2023-11-19T13:05:32;18.30;99.90
484;DHT22;228;48.922;12.198;2023-11-19T13:10:29;18.70;85.50
484;DHT22;228;48.922;12.198;2023-11-19T13:13:08;18.00;86.70
484;DHT22;228;48.922;12.198;2023-11-19T13:15:34;18.10;87.20
484;DHT22;228;48.922;12.198;2023-11-19T13:18:01;18.60;86.90
484;DHT22;228;48.922;12.198;2023-11-19T13:20:28;19.20;82.90
484;DHT22;228;48.922;12.198;2023-11-19T13:23:05;19.60;80.80
484;DHT22;228;48.922;12.198;2023-11-19T13:25:31;20.30;79.10
484;DHT22;228;48.922;12.198;2023-11-19T13:28:00;20.60;74.90
484;DHT22;228;48.922;12.198;2023-11-19T13:30:26;20.50;73.30
484;DHT22;228;48.922;12.198;2023-11-19T13:32:52;20.70;73.80
484;DHT22;228;48.922;12.198;2023-11-19T14:07:27;19.10;73.30
484;DHT22;228;48.922;12.198;2023-11-19T14:09:53;18.70;76.90
484;DHT22;228;48.922;12.198;2023-11-19T14:12:20;18.20;79.50
484;DHT22;228;48.922;12.198;2023-11-19T14:14:46;17.70;82.10
484;DHT22;228;48.922;12.198;2023-11-19T14:17:11;17.50;84.30
484;DHT22;228;48.922;12.198;2023-11-19T14:19:38;17.20;84.10
484;DHT22;228;48.922;12.198;2023-11-19T14:22:05;16.50;87.10
484;DHT22;228;48.922;12.198;2023-11-19T14:24:31;16.30;90.20
484;DHT22;228;48.922;12.198;2023-11-19T14:26:57;16.10;90.00
484;DHT22;228;48.922;12.198;2023-11-19T14:29:27;16.10;90.60
484;DHT22;228;48.922;12.198;2023-11-19T14:31:55;15.70;91.30
484;DHT22;228;48.922;12.198;2023-11-19T14:34:21;15.20;92.40
484;DHT22;228;48.922;12.198;2023-11-19T14:36:47;15.00;92.90
484;DHT22;228;48.922;12.198;2023-11-19T14:39:14;15.10;93.20
484;DHT22;228;48.922;12.198;2023-11-19T14:41:40;15.00;93.10
484;DHT22;228;48.922;12.198;2023-11-19T14:44:06;14.90;93.10
484;DHT22;228;48.922;12.198;2023-11-19T14:46:33;15.20;92.80
484;DHT22;228;48.922;12.198;2023-11-19T14:48:59;15.50;92.20
484;DHT22;228;48.922;12.198;2023-11-19T14:51:25;15.50;91.70
484;DHT22;228;48.922;12.198;2023-11-19T14:53:51;15.10;92.40
484;DHT22;228;48.922;12.198;2023-11-19T14:56:17;15.20;92.50
484;DHT22;228;48.922;12.198;2023-11-19T14:58:43;15.10;92.70
484;DHT22;228;48.922;12.198;2023-11-19T15:01:13;15.20;92.40
484;DHT22;228;48.922;12.198;2023-11-19T15:03:40;14.90;92.50
484;DHT22;228;48.922;12.198;2023-11-19T15:06:07;14.60;93.20
484;DHT22;228;48.922;12.198;2023-11-19T15:08:33;14.50;93.40
484;DHT22;228;48.922;12.198;2023-11-19T15:10:59;14.30;93.70
484;DHT22;228;48.922;12.198;2023-11-19T15:13:27;14.30;94.00
484;DHT22;228;48.922;12.198;2023-11-19T15:15:53;14.50;93.70
484;DHT22;228;48.922;12.198;2023-11-19T15:18:21;14.50;93.60
484;DHT22;228;48.922;12.198;2023-11-19T15:20:47;14.50;93.60
484;DHT22;228;48.922;12.198;2023-11-19T15:23:13;14.20;94.00
484;DHT22;228;48.922;12.198;2023-11-19T15:25:39;14.40;93.90
484;DHT22;228;48.922;12.198;2023-11-19T15:28:05;14.70;93.40
484;DHT22;228;48.922;12.198;2023-11-19T15:30:31;14.70;93.10
484;DHT22;228;48.922;12.198;2023-11-19T15:32:57;14.60;93.30
484;DHT22;228;48.922;12.198;2023-11-19T15:35:23;14.50;93.40
484;DHT22;228;48.922;12.198;2023-11-19T15:37:49;13.90;94.30
484;DHT22;228;48.922;12.198;2023-11-19T15:40:15;13.70;94.70
484;DHT22;228;48.922;12.198;2023-11-19T15:42:41;13.70;94.80
484;DHT22;228;48.922;12.198;2023-11-19T15:45:09;13.60;94.70
484;DHT22;228;48.922;12.198;2023-11-19T15:47:36;13.80;94.50
484;DHT22;228;48.922;12.198;2023-11-19T15:50:03;13.90;94.30
484;DHT22;228;48.922;12.198;2023-11-19T15:52:31;13.90;94.20
484;DHT22;228;48.922;12.198;2023-11-19T15:54:57;13.80;94.30
484;DHT22;228;48.922;12.198;2023-11-19T15:57:23;13.80;94.20
484;DHT22;228;48.922;12.198;2023-11-19T15:59:50;13.70;94.10
484;DHT22;228;48.922;12.198;2023-11-19T16:02:17;13.70;94.40
484;DHT22;228;48.922;12.198;2023-11-19T16:04:43;13.50;94.60
484;DHT22;228;48.922;12.198;2023-11-19T16:07:15;13.40;94.50
484;DHT22;228;48.922;12.198;2023-11-19T16:09:41;13.10;95.40
484;DHT22;228;48.922;12.198;2023-11-19T16:12:08;13.10;95.80
484;DHT22;228;48.922;12.198;2023-11-19T16:14:34;12.80;96.50
484;DHT22;228;48.922;12.198;2023-11-19T16:17:00;12.70;97.30
484;DHT22;228;48.922;12.198;2023-11-19T16:19:26;13.00;96.60
484;DHT22;228;48.922;12.198;2023-11-19T16:21:53;13.10;96.30
484;DHT22;228;48.922;12.198;2023-11-19T16:24:19;13.20;96.40
484;DHT22;228;48.922;12.198;2023-11-19T16:26:45;13.20;96.30
484;DHT22;228;48.922;12.198;2023-11-19T16:29:11;13.30;96.40
484;DHT22;228;48.922;12.198;2023-11-19T16:31:37;13.30;96.20
484;DHT22;228;48.922;12.198;2023-11-19T16:34:03;13.50;95.80
484;DHT22;228;48.922;12.198;2023-11-19T16:36:30;13.20;96.00
484;DHT22;228;48.922;12.198;2023-11-19T16:38:57;13.20;96.30
484;DHT22;228;48.922;12.198;2023-11-19T16:41:23;13.40;95.90
484;DHT22;228;48.922;12.198;2023-11-19T16:43:49;13.40;95.90
484;DHT22;228;48.922;12.198;2023-11-19T16:46:20;13.40;96.10
484;DHT22;228;48.922;12.198;2023-11-19T16:48:49;13.40;96.00
484;DHT22;228;48.922;12.198;2023-11-19T16:51:16;13.50;95.80
484;DHT22;228;48.922;12.198;2023-11-19T16:53:48;13.60;95.70
484;DHT22;228;48.922;12.198;2023-11-19T16:56:20;13.80;95.20
484;DHT22;228;48.922;12.198;2023-11-19T16:58:49;13.90;94.80
484;DHT22;228;48.922;12.198;2023-11-19T17:01:16;14.00;94.60
484;DHT22;228;48.922;12.198;2023-11-19T17:03:42;14.00;94.30
484;DHT22;228;48.922;12.198;2023-11-19T17:06:09;14.10;94.20
484;DHT22;228;48.922;12.198;2023-11-19T17:08:35;14.10;93.90
484;DHT22;228;48.922;12.198;2023-11-19T17:11:05;14.10;93.80
484;DHT22;228;48.922;12.198;2023-11-19T17:13:33;14.10;93.80
484;DHT22;228;48.922;12.198;2023-11-19T17:16:00;14.20;93.50
484;DHT22;228;48.922;12.198;2023-11-19T17:18:26;14.20;93.20
484;DHT22;228;48.922;12.198;2023-11-19T17:20:52;13.80;93.70
484;DHT22;228;48.922;12.198;2023-11-19T17:23:20;13.80;94.20
484;DHT22;228;48.922;12.198;2023-11-19T17:25:46;13.60;94.70
484;DHT22;228;48.922;12.198;2023-11-19T17:28:13;13.90;94.40
484;DHT22;228;48.922;12.198;2023-11-19T17:30:39;14.00;93.80
484;DHT22;228;48.922;12.198;2023-11-19T17:33:06;14.00;93.90
484;DHT22;228;48.922;12.198;2023-11-19T17:35:32;13.90;93.80
484;DHT22;228;48.922;12.198;2023-11-19T17:37:59;13.80;94.10
484;DHT22;228;48.922;12.198;2023-11-19T17:40:25;13.90;94.30
484;DHT22;228;48.922;12.198;2023-11-19T17:42:55;13.40;94.80
484;DHT22;228;48.922;12.198;2023-11-19T17:45:23;13.00;95.90
484;DHT22;228;48.922;12.198;2023-11-19T17:47:49;13.00;96.00
484;DHT22;228;48.922;12.198;2023-11-19T17:50:15;12.80;96.90
484;DHT22;228;48.922;12.198;2023-11-19T17:52:41;12.60;97.20
484;DHT22;228;48.922;12.198;2023-11-19T17:55:08;12.60;97.90
484;DHT22;228;48.922;12.198;2023-11-19T17:57:42;12.70;97.80
484;DHT22;228;48.922;12.198;2023-11-19T18:00:09;12.80;97.60
484;DHT22;228;48.922;12.198;2023-11-19T18:02:45;13.10;97.20
484;DHT22;228;48.922;12.198;2023-11-19T18:05:14;13.00;97.30
484;DHT22;228;48.922;12.198;2023-11-19T18:07:40;12.70;98.00
484;DHT22;228;48.922;12.198;2023-11-19T18:10:09;12.40;98.70
484;DHT22;228;48.922;12.198;2023-11-19T18:12:36;12.30;98.90
484;DHT22;228;48.922;12.198;2023-11-19T18:15:04;12.50;98.60
484;DHT22;228;48.922;12.198;2023-11-19T18:17:31;12.60;98.00
484;DHT22;228;48.922;12.198;2023-11-19T18:20:00;12.80;97.50
484;DHT22;228;48.922;12.198;2023-11-19T18:22:26;12.80;97.30
484;DHT22;228;48.922;12.198;2023-11-19T18:24:52;12.80;97.10
484;DHT22;228;48.922;12.198;2023-11-19T18:27:18;12.80;97.20
484;DHT22;228;48.922;12.198;2023-11-19T18:29:46;12.80;97.40
484;DHT22;228;48.922;12.198;2023-11-19T18:32:13;12.70;97.00
484;DHT22;228;48.922;12.198;2023-11-19T18:34:39;12.70;97.10
484;DHT22;228;48.922;12.198;2023-11-19T18:37:08;12.90;96.90
484;DHT22;228;48.922;12.198;2023-11-19T18:39:34;12.90;96.30
484;DHT22;228;48.922;12.198;2023-11-19T18:42:00;12.80;96.40
484;DHT22;228;48.922;12.198;2023-11-19T18:44:26;12.90;95.80
484;DHT22;228;48.922;12.198;2023-11-19T18:46:53;12.90;95.60
484;DHT22;228;48.922;12.198;2023-11-19T18:49:19;13.00;95.40
484;DHT22;228;48.922;12.198;2023-11-19T18:51:44;12.90;95.00
484;DHT22;228;48.922;12.198;2023-11-19T18:54:10;12.40;95.80
484;DHT22;228;48.922;12.198;2023-11-19T18:56:36;12.40;96.40
484;DHT22;228;48.922;12.198;2023-11-19T18:59:02;12.00;97.00
484;DHT22;228;48.922;12.198;2023-11-19T19:01:29;12.10;97.40
484;DHT22;228;48.922;12.198;2023-11-19T19:03:57;12.00;97.20
484;DHT22;228;48.922;12.198;2023-11-19T19:06:24;11.60;98.40
484;DHT22;228;48.922;12.198;2023-11-19T19:08:51;11.60;98.80
484;DHT22;228;48.922;12.198;2023-11-19T19:11:17;11.50;98.30
484;DHT22;228;48.922;12.198;2023-11-19T19:13:46;11.10;99.60
484;DHT22;228;48.922;12.198;2023-11-19T19:16:13;11.20;99.90
484;DHT22;228;48.922;12.198;2023-11-19T19:18:39;11.50;99.90
484;DHT22;228;48.922;12.198;2023-11-19T19:21:06;12.00;98.70
484;DHT22;228;48.922;12.198;2023-11-19T19:23:32;12.20;98.00
484;DHT22;228;48.922;12.198;2023-11-19T19:25:58;12.40;96.90
484;DHT22;228;48.922;12.198;2023-11-19T19:28:24;12.50;96.60
484;DHT22;228;48.922;12.198;2023-11-19T19:30:53;12.10;96.40
484;DHT22;228;48.922;12.198;2023-11-19T19:33:19;12.20;97.10
484;DHT22;228;48.922;12.198;2023-11-19T19:35:45;12.30;96.30
484;DHT22;228;48.922;12.198;2023-11-19T19:38:11;12.50;96.30
484;DHT22;228;48.922;12.198;2023-11-19T19:40:37;12.80;95.40
484;DHT22;228;48.922;12.198;2023-11-19T19:43:04;12.70;95.40
484;DHT22;228;48.922;12.198;2023-11-19T19:45:31;12.60;94.90
484;DHT22;228;48.922;12.198;2023-11-19T19:47:57;12.50;94.40
484;DHT22;228;48.922;12.198;2023-11-19T19:50:23;12.80;94.30
484;DHT22;228;48.922;12.198;2023-11-19T19:52:51;12.90;93.90
484;DHT22;228;48.922;12.198;2023-11-19T19:55:17;12.60;94.00
484;DHT22;228;48.922;12.198;2023-11-19T19:57:47;12.80;93.80
484;DHT22;228;48.922;12.198;2023-11-19T20:00:14;12.20;94.50
484;DHT22;228;48.922;12.198;2023-11-19T20:02:41;12.20;94.70
484;DHT22;228;48.922;12.198;2023-11-19T20:05:08;12.50;94.60
484;DHT22;228;48.922;12.198;2023-11-19T20:07:42;12.30;94.10
484;DHT22;228;48.922;12.198;2023-11-19T20:10:09;12.30;93.50
484;DHT22;228;48.922;12.198;2023-11-19T20:12:39;12.50;93.40
484;DHT22;228;48.922;12.198;2023-11-19T20:15:08;12.60;92.80
484;DHT22;228;48.922;12.198;2023-11-19T20:17:34;12.70;92.80
484;DHT22;228;48.922;12.198;2023-11-19T20:20:01;13.00;92.30
484;DHT22;228;48.922;12.198;2023-11-19T20:22:29;13.00;92.10
484;DHT22;228;48.922;12.198;2023-11-19T20:24:55;12.90;92.10
484;DHT22;228;48.922;12.198;2023-11-19T20:27:21;13.00;92.00
484;DHT22;228;48.922;12.198;2023-11-19T20:29:47;13.00;92.00
484;DHT22;228;48.922;12.198;2023-11-19T20:32:15;12.90;92.10
484;DHT22;228;48.922;12.198;2023-11-19T20:34:42;12.40;93.10
484;DHT22;228;48.922;12.198;2023-11-19T20:37:08;12.30;93.80
484;DHT22;228;48.922;12.198;2023-11-19T20:39:34;12.20;94.00
484;DHT22;228;48.922;12.198;2023-11-19T20:42:01;11.80;95.00
484;DHT22;228;48.922;12.198;2023-11-19T20:44:31;11.60;95.30
484;DHT22;228;48.922;12.198;2023-11-19T20:46:57;11.50;95.90
484;DHT22;228;48.922;12.198;2023-11-19T20:49:26;11.30;96.10
484;DHT22;228;48.922;12.198;2023-11-19T20:51:53;11.50;95.70
484;DHT22;228;48.922;12.198;2023-11-19T20:54:18;11.60;95.60
484;DHT22;228;48.922;12.198;2023-11-19T20:56:44;11.50;95.60
484;DHT22;228;48.922;12.198;2023-11-19T20:59:10;11.60;95.50
484;DHT22;228;48.922;12.198;2023-11-19T21:01:36;11.70;95.30
484;DHT22;228;48.922;12.198;2023-11-19T21:04:03;11.80;95.20
484;DHT22;228;48.922;12.198;2023-11-19T21:06:29;11.90;95.00
484;DHT22;228;48.922;12.198;2023-11-19T21:08:55;12.00;94.90
484;DHT22;228;48.922;12.198;2023-11-19T21:11:21;12.20;94.60
484;DHT22;228;48.922;12.198;2023-11-19T21:13:48;12.00;95.00
484;DHT22;228;48.922;12.198;2023-11-19T21:16:16;11.80;95.50
484;DHT22;228;48.922;12.198;2023-11-19T21:18:43;12.10;94.90
484;DHT22;228;48.922;12.198;2023-11-19T21:21:09;11.90;95.30
484;DHT22;228;48.922;12.198;2023-11-19T21:23:36;12.00;95.40
484;DHT22;228;48.922;12.198;2023-11-19T21:26:02;12.20;95.10
484;DHT22;228;48.922;12.198;2023-11-19T21:28:29;12.20;95.30
484;DHT22;228;48.922;12.198;2023-11-19T21:30:59;12.20;95.30
484;DHT22;228;48.922;12.198;2023-11-19T21:33:26;12.30;95.30
484;DHT22;228;48.922;12.198;2023-11-19T21:35:53;12.30;95.20
484;DHT22;228;48.922;12.198;2023-11-19T21:38:26;12.20;95.30
484;DHT22;228;48.922;12.198;2023-11-19T21:40:55;12.10;95.40
484;DHT22;228;48.922;12.198;2023-11-19T21:43:21;12.20;95.40
484;DHT22;228;48.922;12.198;2023-11-19T21:45:48;12.30;95.40
484;DHT22;228;48.922;12.198;2023-11-19T21:48:14;12.30;95.50
484;DHT22;228;48.922;12.198;2023-11-19T21:50:40;12.20;95.80
484;DHT22;228;48.922;12.198;2023-11-19T21:53:07;12.00;96.00
484;DHT22;228;48.922;12.198;2023-11-19T21:55:35;12.10;96.10
484;DHT22;228;48.922;12.198;2023-11-19T21:58:01;11.90;96.40
484;DHT22;228;48.922;12.198;2023-11-19T22:00:27;11.80;96.60
484;DHT22;228;48.922;12.198;2023-11-19T22:02:53;11.70;97.00
484;DHT22;228;48.922;12.198;2023-11-19T22:05:19;11.70;97.00
484;DHT22;228;48.922;12.198;2023-11-19T22:07:47;11.70;97.20
484;DHT22;228;48.922;12.198;2023-11-19T22:10:13;11.90;96.90
484;DHT22;228;48.922;12.198;2023-11-19T22:12:40;11.70;96.90
